Time;durP1;ratioP1;P1;durP2;ratioP2;P2;SDS_P1;SDS_P2;PMS_P1;PMS_P2;Temp;Humidity;BMP_temperature;BMP_pressure;BME280_temperature;BME280_humidity;BME280_pressure;Samples;Min_cycle;Max_cycle;Signal;HPM_P1;HPM_P2
2023/01/06 00:02:24;;;;;;;5.78;1.08;;;;;;;;;;5094273;28;20054;-60
2023/01/06 00:04:50;;;;;;;7.10;1.50;;;;;;;;;;5093953;28;20048;-60
2023/01/06 00:07:17;;;;;;;6.78;1.65;;;;;;;;;;5094294;28;20048;-60
2023/01/06 00:09:43;;;;;;;7.43;1.80;;;;;;;;;;5093962;28;20072;-60
2023/01/06 00:12:09;;;;;;;13.35;1.58;;;;;;;;;;5094051;28;20048;-60
2023/01/06 00:14:36;;;;;;;13.55;1.77;;;;;;;;;;5093739;28;20075;-59
2023/01/06 00:17:02;;;;;;;10.07;1.70;;;;;;;;;;5093627;28;20058;-60
2023/01/06 00:19:28;;;;;;;9.70;1.00;;;;;;;;;;5094049;28;20040;-60
2023/01/06 00:21:55;;;;;;;16.02;1.65;;;;;;;;;;5093883;28;20054;-59
2023/01/06 00:24:21;;;;;;;8.45;1.50;;;;;;;;;;5093876;28;20058;-60
2023/01/06 00:26:48;;;;;;;6.60;1.27;;;;;;;;;;5093909;28;20052;-60
2023/01/06 00:29:14;;;;;;;8.85;1.30;;;;;;;;;;5093697;28;20052;-59
2023/01/06 00:31:40;;;;;;;10.63;1.20;;;;;;;;;;5093949;28;20055;-60
2023/01/06 00:34:08;;;;;;;7.50;1.48;;;;;;;;;;5093482;28;20498;-59
2023/01/06 00:36:35;;;;;;;;;;;;;;;;;;5093991;28;20050;-59
2023/01/06 00:39:01;;;;;;;7.90;1.50;;;;;;;;;;5093339;28;20277;-59
2023/01/06 00:44:12;;;;;;;12.40;3.00;;;;;;;;;;5093634;28;20060;-60
2023/01/06 00:46:39;;;;;;;7.32;1.77;;;;;;;;;;5093622;28;20044;-60
2023/01/06 00:49:05;;;;;;;8.95;1.65;;;;;;;;;;5093323;28;20488;-60
2023/01/06 00:51:37;;;;;;;6.07;1.33;;;;;;;;;;5092995;28;20074;-60
2023/01/06 00:54:04;;;;;;;4.90;1.38;;;;;;;;;;5093368;28;20072;-60
2023/01/06 00:56:30;;;;;;;5.63;1.02;;;;;;;;;;5093071;28;20058;-60
2023/01/06 00:58:57;;;;;;;6.60;1.17;;;;;;;;;;5093360;28;20131;-60
2023/01/06 01:01:23;;;;;;;5.07;0.80;;;;;;;;;;5093380;28;20056;-59
2023/01/06 01:03:50;;;;;;;6.75;0.90;;;;;;;;;;5093067;28;20048;-59
2023/01/06 01:06:16;;;;;;;5.40;0.77;;;;;;;;;;5092522;28;20047;-60
2023/01/06 01:08:43;;;;;;;6.68;1.02;;;;;;;;;;5093068;28;20142;-60
2023/01/06 01:12:08;;;;;;;7.75;1.08;;;;;;;;;;5092191;28;20167;-60
2023/01/06 01:13:56;;;;;;;10.15;1.30;;;;;;;;;;5092384;28;20048;-60
2023/01/06 01:16:23;;;;;;;12.85;1.20;;;;;;;;;;5092643;28;20131;-60
2023/01/06 01:18:49;;;;;;;6.95;1.23;;;;;;;;;;5092886;28;20101;-60
2023/01/06 01:21:15;;;;;;;11.15;1.33;;;;;;;;;;5092679;28;20062;-59
2023/01/06 01:23:42;;;;;;;14.65;1.55;;;;;;;;;;5092789;28;20134;-60
2023/01/06 01:26:08;;;;;;;16.08;2.45;;;;;;;;;;5092519;28;20605;-59
2023/01/06 01:28:35;;;;;;;12.50;1.90;;;;;;;;;;5092344;28;20052;-60
2023/01/06 01:31:02;;;;;;;6.85;1.55;;;;;;;;;;5092059;28;20051;-60
2023/01/06 01:33:29;;;;;;;8.30;1.70;;;;;;;;;;5091960;28;20563;-60
2023/01/06 01:35:55;;;;;;;12.05;2.13;;;;;;;;;;5092525;28;20050;-60
2023/01/06 01:38:24;;;;;;;6.22;1.40;;;;;;;;;;5092589;28;20066;-60
2023/01/06 01:40:50;;;;;;;9.95;1.13;;;;;;;;;;5092536;28;20055;-60
2023/01/06 01:43:17;;;;;;;7.07;1.00;;;;;;;;;;5092174;28;20536;-60
2023/01/06 01:45:46;;;;;;;8.63;1.08;;;;;;;;;;5092365;28;20426;-59
2023/01/06 01:48:32;;;;;;;6.03;0.70;;;;;;;;;;5092285;28;20052;-60
2023/01/06 01:51:01;;;;;;;9.40;1.33;;;;;;;;;;5091799;28;20051;-60
2023/01/06 01:53:29;;;;;;;8.38;0.95;;;;;;;;;;5092233;28;20145;-60
2023/01/06 01:55:57;;;;;;;7.45;1.25;;;;;;;;;;5092294;28;20044;-59
2023/01/06 01:58:24;;;;;;;;;;;;;;;;;;5092333;28;20075;-59
2023/01/06 02:00:50;;;;;;;8.85;1.02;;;;;;;;;;5091997;28;19959;-60
2023/01/06 02:03:17;;;;;;;3.83;0.50;;;;;;;;;;5092305;28;20048;-60
2023/01/06 02:05:49;;;;;;;3.72;0.80;;;;;;;;;;5090234;28;20058;-59
2023/01/06 02:08:27;;;;;;;6.18;0.90;;;;;;;;;;5092066;28;20058;-60
2023/01/06 02:10:54;;;;;;;7.93;0.65;;;;;;;;;;5091714;28;20483;-59
2023/01/06 02:13:20;;;;;;;6.85;1.02;;;;;;;;;;5091732;28;20059;-60
2023/01/06 02:15:48;;;;;;;4.60;0.75;;;;;;;;;;5091920;28;20044;-60
2023/01/06 02:18:14;;;;;;;7.28;0.80;;;;;;;;;;5091689;28;20521;-60
2023/01/06 02:20:43;;;;;;;5.70;0.70;;;;;;;;;;5091808;28;20077;-60
2023/01/06 02:23:22;;;;;;;7.45;0.75;;;;;;;;;;5092000;28;20048;-60
2023/01/06 02:26:11;;;;;;;8.02;0.90;;;;;;;;;;5091719;28;20519;-60
2023/01/06 02:28:40;;;;;;;8.65;0.82;;;;;;;;;;5091926;28;20036;-60
2023/01/06 02:31:25;;;;;;;7.25;0.65;;;;;;;;;;5091833;28;20392;-60
2023/01/06 02:34:01;;;;;;;5.13;0.90;;;;;;;;;;5091511;28;20063;-60
2023/01/06 02:36:27;;;;;;;12.20;1.67;;;;;;;;;;5091635;28;20503;-60
2023/01/06 02:38:59;;;;;;;6.43;0.90;;;;;;;;;;5091624;28;20123;-60
2023/01/06 02:41:37;;;;;;;8.43;0.80;;;;;;;;;;5091549;28;20135;-60
2023/01/06 02:44:10;;;;;;;9.32;0.82;;;;;;;;;;5092604;28;20566;-60
2023/01/06 02:46:37;;;;;;;7.43;0.80;;;;;;;;;;5095828;28;20094;-60
2023/01/06 02:49:06;;;;;;;2.95;0.57;;;;;;;;;;5095639;28;20044;-60
2023/01/06 02:51:43;;;;;;;4.93;0.73;;;;;;;;;;5095601;28;20052;-60
2023/01/06 02:54:13;;;;;;;4.82;0.75;;;;;;;;;;5095812;28;20502;-60
2023/01/06 02:56:42;;;;;;;3.90;0.50;;;;;;;;;;5095681;28;20071;-60
2023/01/06 02:59:21;;;;;;;5.35;0.60;;;;;;;;;;5095640;28;20039;-60
2023/01/06 03:01:48;;;;;;;3.20;0.52;;;;;;;;;;5095516;28;20051;-60
2023/01/06 03:04:21;;;;;;;2.47;0.50;;;;;;;;;;5095309;28;20051;-60
2023/01/06 03:06:49;;;;;;;4.80;0.50;;;;;;;;;;5095146;28;20048;-60
2023/01/06 03:09:18;;;;;;;4.38;0.60;;;;;;;;;;5095383;28;20052;-60
2023/01/06 03:11:47;;;;;;;3.92;0.55;;;;;;;;;;5095332;28;20179;-60
2023/01/06 03:14:19;;;;;;;3.33;0.30;;;;;;;;;;5095071;28;20070;-60
2023/01/06 03:16:46;;;;;;;1.80;0.50;;;;;;;;;;5095108;28;20044;-60
2023/01/06 03:19:13;;;;;;;3.33;0.30;;;;;;;;;;5095061;28;20048;-60
2023/01/06 03:21:41;;;;;;;2.23;0.60;;;;;;;;;;5095467;28;20450;-60
2023/01/06 03:24:08;;;;;;;2.58;0.57;;;;;;;;;;5095174;28;20478;-60
2023/01/06 03:26:36;;;;;;;3.70;0.40;;;;;;;;;;5095160;28;20048;-59
2023/01/06 03:29:05;;;;;;;2.83;0.98;;;;;;;;;;5095122;28;20107;-60
2023/01/06 03:31:34;;;;;;;3.15;0.70;;;;;;;;;;5095099;28;20054;-60
2023/01/06 03:34:03;;;;;;;3.60;0.40;;;;;;;;;;5094617;28;20052;-60
2023/01/06 03:36:32;;;;;;;2.20;0.43;;;;;;;;;;5094861;28;20051;-60
2023/01/06 03:39:06;;;;;;;2.53;0.40;;;;;;;;;;5094589;28;20052;-59
2023/01/06 03:44:38;;;;;;;2.67;0.30;;;;;;;;;;5094491;28;20548;-60
2023/01/06 03:47:20;;;;;;;4.35;0.90;;;;;;;;;;5094702;28;20407;-59
2023/01/06 03:49:52;;;;;;;5.82;0.40;;;;;;;;;;5094759;28;20044;-60
2023/01/06 03:52:34;;;;;;;5.53;0.60;;;;;;;;;;5094562;28;20122;-60
2023/01/06 03:55:03;;;;;;;5.43;1.00;;;;;;;;;;5093694;28;20472;-60
2023/01/06 03:57:32;;;;;;;5.35;0.63;;;;;;;;;;5094471;28;20048;-60
2023/01/06 04:00:08;;;;;;;5.00;0.43;;;;;;;;;;5094489;28;20131;-60
2023/01/06 04:02:38;;;;;;;4.45;0.57;;;;;;;;;;5094176;28;20127;-60
2023/01/06 04:05:11;;;;;;;3.58;0.65;;;;;;;;;;5094058;28;20058;-60
2023/01/06 04:07:38;;;;;;;4.15;0.80;;;;;;;;;;5094352;28;20054;-60
2023/01/06 04:10:05;;;;;;;7.05;0.80;;;;;;;;;;5094284;28;20044;-60
2023/01/06 04:12:38;;;;;;;7.03;0.73;;;;;;;;;;5093727;28;20044;-60
2023/01/06 04:15:11;;;;;;;5.43;0.75;;;;;;;;;;5094238;28;20426;-60
2023/01/06 04:17:38;;;;;;;4.65;0.60;;;;;;;;;;5093739;28;20048;-60
2023/01/06 04:20:05;;;;;;;5.00;0.65;;;;;;;;;;5094211;28;20055;-60
2023/01/06 04:22:31;;;;;;;3.95;0.70;;;;;;;;;;5094023;28;20052;-60
2023/01/06 04:24:58;;;;;;;5.35;0.70;;;;;;;;;;5093913;28;20054;-60
2023/01/06 04:27:24;;;;;;;3.35;0.70;;;;;;;;;;5093751;28;20074;-60
2023/01/06 04:29:50;;;;;;;5.38;0.98;;;;;;;;;;5093663;28;20048;-60
2023/01/06 04:32:17;;;;;;;6.68;0.82;;;;;;;;;;5093326;28;20055;-60
2023/01/06 04:34:43;;;;;;;5.90;0.90;;;;;;;;;;5093695;28;20044;-60
2023/01/06 04:37:10;;;;;;;6.85;0.70;;;;;;;;;;5093431;28;20052;-60
2023/01/06 04:39:36;;;;;;;5.68;0.85;;;;;;;;;;5093484;28;20497;-60
2023/01/06 04:42:03;;;;;;;6.97;1.00;;;;;;;;;;5093287;28;20499;-60
2023/01/06 04:44:29;;;;;;;7.50;0.93;;;;;;;;;;5093392;28;20047;-60
2023/01/06 04:46:55;;;;;;;6.20;0.68;;;;;;;;;;5093243;28;20050;-60
2023/01/06 04:49:22;;;;;;;4.63;0.90;;;;;;;;;;5093496;28;20059;-60
2023/01/06 04:51:48;;;;;;;5.57;0.73;;;;;;;;;;5093000;28;20059;-60
2023/01/06 04:54:14;;;;;;;4.22;0.70;;;;;;;;;;5093271;28;20478;-60
2023/01/06 04:56:41;;;;;;;4.88;0.60;;;;;;;;;;5093114;28;20130;-60
2023/01/06 04:59:07;;;;;;;4.43;0.93;;;;;;;;;;5093069;28;20040;-60
2023/01/06 05:01:35;;;;;;;6.18;0.70;;;;;;;;;;5093181;28;20546;-60
2023/01/06 05:04:01;;;;;;;4.88;0.80;;;;;;;;;;5093448;28;20040;-60
2023/01/06 05:06:28;;;;;;;5.28;0.70;;;;;;;;;;5092132;28;20109;-60
2023/01/06 05:08:54;;;;;;;5.80;0.82;;;;;;;;;;5093070;28;20109;-60
2023/01/06 05:11:21;;;;;;;5.35;0.73;;;;;;;;;;5092998;28;20143;-60
2023/01/06 05:13:48;;;;;;;4.85;0.65;;;;;;;;;;5092739;28;20044;-60
2023/01/06 05:16:24;;;;;;;5.15;1.00;;;;;;;;;;5092790;28;20044;-60
2023/01/06 05:18:50;;;;;;;8.82;1.10;;;;;;;;;;5092814;28;20055;-60
2023/01/06 05:21:17;;;;;;;6.68;1.10;;;;;;;;;;5092721;28;20131;-60
2023/01/06 05:23:43;;;;;;;4.68;0.73;;;;;;;;;;5093173;28;20050;-60
2023/01/06 05:26:14;;;;;;;7.72;1.40;;;;;;;;;;5092491;28;20048;-60
2023/01/06 05:28:41;;;;;;;7.25;0.88;;;;;;;;;;5092469;28;20131;-60
2023/01/06 05:31:08;;;;;;;5.00;1.02;;;;;;;;;;5092638;28;20063;-60
2023/01/06 05:33:34;;;;;;;7.75;1.50;;;;;;;;;;5092471;28;20052;-60
2023/01/06 05:36:01;;;;;;;5.82;1.30;;;;;;;;;;5092364;28;20488;-60
2023/01/06 05:38:28;;;;;;;8.43;0.80;;;;;;;;;;5092278;28;20562;-60
2023/01/06 05:40:58;;;;;;;12.00;1.15;;;;;;;;;;5092557;28;20071;-60
2023/01/06 05:43:25;;;;;;;7.30;0.90;;;;;;;;;;5092465;28;20052;-60
2023/01/06 05:45:51;;;;;;;9.70;1.60;;;;;;;;;;5092248;28;20055;-60
2023/01/06 05:48:18;;;;;;;9.95;1.20;;;;;;;;;;5092085;28;20507;-60
2023/01/06 05:50:45;;;;;;;10.35;1.13;;;;;;;;;;5092303;28;20043;-60
2023/01/06 05:53:11;;;;;;;4.38;0.90;;;;;;;;;;5091983;28;20058;-60
2023/01/06 05:55:37;;;;;;;5.22;0.88;;;;;;;;;;5092173;28;20043;-60
2023/01/06 05:58:04;;;;;;;9.38;1.08;;;;;;;;;;5092625;28;20408;-60
2023/01/06 06:00:30;;;;;;;5.53;0.95;;;;;;;;;;5092073;28;20046;-60
2023/01/06 06:02:57;;;;;;;4.28;0.90;;;;;;;;;;5091980;28;20131;-59
2023/01/06 06:05:23;;;;;;;9.52;1.52;;;;;;;;;;5092126;28;20054;-60
2023/01/06 06:07:56;;;;;;;11.20;1.30;;;;;;;;;;5091944;28;20055;-60
2023/01/06 06:10:22;;;;;;;8.77;1.00;;;;;;;;;;5091811;28;20051;-60
2023/01/06 06:12:50;;;;;;;7.03;1.30;;;;;;;;;;5092009;28;20055;-60
2023/01/06 06:15:16;;;;;;;10.35;1.13;;;;;;;;;;5092093;28;20052;-61
2023/01/06 06:17:43;;;;;;;8.32;1.13;;;;;;;;;;5091807;28;20044;-60
2023/01/06 06:20:09;;;;;;;9.40;1.10;;;;;;;;;;5091762;28;20044;-60
2023/01/06 06:22:36;;;;;;;5.93;1.20;;;;;;;;;;5091778;28;20055;-60
2023/01/06 06:25:02;;;;;;;7.25;1.05;;;;;;;;;;5091905;28;20052;-60
2023/01/06 06:27:28;;;;;;;11.05;1.35;;;;;;;;;;5092066;28;20075;-60
2023/01/06 06:29:55;;;;;;;6.25;1.38;;;;;;;;;;5091554;28;20048;-60
2023/01/06 06:32:21;;;;;;;7.25;1.35;;;;;;;;;;5091408;28;20044;-60
2023/01/06 06:34:48;;;;;;;8.20;1.42;;;;;;;;;;5091633;28;20559;-60
2023/01/06 06:37:14;;;;;;;4.07;1.13;;;;;;;;;;5091759;28;20062;-60
2023/01/06 06:39:40;;;;;;;6.28;1.10;;;;;;;;;;5091515;28;20052;-60
2023/01/06 06:42:07;;;;;;;6.57;1.75;;;;;;;;;;5091789;28;20075;-60
2023/01/06 06:44:33;;;;;;;11.98;1.50;;;;;;;;;;5091722;28;20134;-60
2023/01/06 06:47:00;;;;;;;8.57;1.50;;;;;;;;;;5091447;28;20040;-60
2023/01/06 06:49:26;;;;;;;12.15;1.92;;;;;;;;;;5091534;28;20460;-60
2023/01/06 06:51:52;;;;;;;4.65;0.93;;;;;;;;;;5091522;28;20065;-60
2023/01/06 06:54:20;;;;;;;;;;;;;;;;;;5092151;28;20071;-60
2023/01/06 06:56:47;;;;;;;11.80;1.42;;;;;;;;;;5091663;28;19924;-60
2023/01/06 06:59:13;;;;;;;11.50;1.85;;;;;;;;;;5091640;28;20051;-60
2023/01/06 07:01:39;;;;;;;7.60;1.40;;;;;;;;;;5091926;28;20121;-60
2023/01/06 07:04:07;;;;;;;7.30;1.35;;;;;;;;;;5091564;28;20051;-60
2023/01/06 07:06:34;;;;;;;10.85;1.85;;;;;;;;;;5091461;28;20048;-60
2023/01/06 07:09:00;;;;;;;11.85;2.00;;;;;;;;;;5091256;28;20056;-60
2023/01/06 07:11:27;;;;;;;8.95;1.25;;;;;;;;;;5091364;28;20407;-60
2023/01/06 07:13:53;;;;;;;9.52;1.45;;;;;;;;;;5091344;28;20054;-60
2023/01/06 07:16:22;;;;;;;7.82;1.70;;;;;;;;;;5091513;28;20494;-60
2023/01/06 07:18:48;;;;;;;6.47;1.23;;;;;;;;;;5091238;28;20087;-60
2023/01/06 07:21:14;;;;;;;7.25;1.38;;;;;;;;;;5091072;28;20040;-60
2023/01/06 07:23:41;;;;;;;7.95;1.30;;;;;;;;;;5091128;28;20480;-60
2023/01/06 07:26:08;;;;;;;8.60;1.70;;;;;;;;;;5091062;28;20606;-60
2023/01/06 07:28:34;;;;;;;6.80;1.50;;;;;;;;;;5091275;28;20050;-60
2023/01/06 07:31:01;;;;;;;8.57;1.30;;;;;;;;;;5093619;28;20052;-59
2023/01/06 07:33:28;;;;;;;4.32;0.90;;;;;;;;;;5094426;28;20051;-60
2023/01/06 07:35:55;;;;;;;7.05;1.02;;;;;;;;;;5094739;28;20048;-60
2023/01/06 07:38:22;;;;;;;5.27;1.20;;;;;;;;;;5094653;28;20044;-60
2023/01/06 07:40:48;;;;;;;5.90;1.23;;;;;;;;;;5094509;28;20656;-60
2023/01/06 07:43:15;;;;;;;6.68;0.90;;;;;;;;;;5094451;28;20054;-60
2023/01/06 07:45:44;;;;;;;4.53;0.98;;;;;;;;;;5094535;28;20125;-60
2023/01/06 07:48:10;;;;;;;12.13;1.42;;;;;;;;;;5094638;28;20059;-60
2023/01/06 07:50:37;;;;;;;8.32;1.48;;;;;;;;;;5094641;28;20054;-60
2023/01/06 07:53:03;;;;;;;4.75;1.10;;;;;;;;;;5094588;28;20048;-60
2023/01/06 07:55:30;;;;;;;6.65;0.90;;;;;;;;;;5094415;28;20044;-60
2023/01/06 07:57:57;;;;;;;5.65;1.27;;;;;;;;;;5094206;28;20059;-60
2023/01/06 08:00:24;;;;;;;3.80;0.82;;;;;;;;;;5094305;28;20052;-60
2023/01/06 08:02:50;;;;;;;8.60;1.35;;;;;;;;;;5094087;28;20093;-60
2023/01/06 08:05:17;;;;;;;8.60;1.30;;;;;;;;;;5094291;28;20048;-60
2023/01/06 08:07:43;;;;;;;6.10;1.17;;;;;;;;;;5094014;28;20051;-60
2023/01/06 08:10:10;;;;;;;4.72;1.10;;;;;;;;;;5093955;28;20054;-60
2023/01/06 08:12:36;;;;;;;4.90;0.80;;;;;;;;;;5093770;28;20056;-60
2023/01/06 08:15:03;;;;;;;7.18;1.17;;;;;;;;;;5091284;28;20483;-60
2023/01/06 08:17:30;;;;;;;4.13;0.98;;;;;;;;;;5093773;28;20044;-60
2023/01/06 08:19:56;;;;;;;7.18;1.02;;;;;;;;;;5093832;28;20083;-60
2023/01/06 08:22:23;;;;;;;7.60;1.42;;;;;;;;;;5094031;28;20052;-60
2023/01/06 08:24:50;;;;;;;8.25;0.88;;;;;;;;;;5096543;28;20136;-60
2023/01/06 08:27:17;;;;;;;8.95;1.10;;;;;;;;;;5086352;28;20059;-60
2023/01/06 08:29:43;;;;;;;6.70;1.45;;;;;;;;;;5093170;28;20423;-60
2023/01/06 08:32:09;;;;;;;5.97;0.90;;;;;;;;;;5093294;28;20055;-60
2023/01/06 08:34:37;;;;;;;8.43;1.45;;;;;;;;;;5093470;28;20100;-60
2023/01/06 08:37:03;;;;;;;5.63;1.35;;;;;;;;;;5091367;28;20056;-60
2023/01/06 08:39:30;;;;;;;6.68;1.05;;;;;;;;;;5090756;28;20047;-60
2023/01/06 08:41:56;;;;;;;5.22;1.27;;;;;;;;;;5093110;28;20131;-60
2023/01/06 08:44:23;;;;;;;5.85;0.80;;;;;;;;;;5093615;28;20056;-60
2023/01/06 08:46:49;;;;;;;5.30;0.93;;;;;;;;;;5093443;28;20044;-60
2023/01/06 08:49:15;;;;;;;5.32;1.00;;;;;;;;;;5093223;28;20059;-60
2023/01/06 08:51:42;;;;;;;8.65;1.30;;;;;;;;;;5092748;28;20123;-60
2023/01/06 08:54:08;;;;;;;6.97;0.88;;;;;;;;;;5092078;28;20101;-60
2023/01/06 08:56:35;;;;;;;7.25;1.20;;;;;;;;;;5092721;28;20080;-60
2023/01/06 08:59:02;;;;;;;5.00;1.10;;;;;;;;;;5092615;28;20564;-60
2023/01/06 09:01:30;;;;;;;7.75;1.00;;;;;;;;;;5092777;28;20044;-60
2023/01/06 09:03:58;;;;;;;5.20;0.85;;;;;;;;;;5093092;28;20080;-61
2023/01/06 09:06:24;;;;;;;3.97;0.77;;;;;;;;;;5089630;28;20446;-60
2023/01/06 09:08:52;;;;;;;6.50;0.95;;;;;;;;;;5092578;28;20555;-59
2023/01/06 09:11:19;;;;;;;4.05;0.82;;;;;;;;;;5090194;28;20134;-60
2023/01/06 09:13:45;;;;;;;2.60;0.60;;;;;;;;;;5092092;28;20052;-60
2023/01/06 09:16:12;;;;;;;3.67;0.65;;;;;;;;;;5092313;28;20476;-61
2023/01/06 09:18:39;;;;;;;2.97;0.55;;;;;;;;;;5092304;28;20095;-60
2023/01/06 09:21:05;;;;;;;4.00;0.70;;;;;;;;;;5091950;28;20044;-61
2023/01/06 09:23:32;;;;;;;4.70;0.70;;;;;;;;;;5092109;28;20080;-60
2023/01/06 09:25:58;;;;;;;4.57;0.60;;;;;;;;;;5092448;28;20133;-61
2023/01/06 09:28:25;;;;;;;3.50;0.60;;;;;;;;;;5091929;28;20127;-60
2023/01/06 09:30:51;;;;;;;2.75;0.77;;;;;;;;;;5092244;28;20083;-60
2023/01/06 09:33:17;;;;;;;5.80;1.10;;;;;;;;;;5092005;28;20120;-60
2023/01/06 09:35:44;;;;;;;3.97;0.60;;;;;;;;;;5092470;28;20054;-60
2023/01/06 09:38:12;;;;;;;7.47;0.97;;;;;;;;;;5086696;28;20076;-60
2023/01/06 09:41:05;;;;;;;3.88;0.98;;;;;;;;;;5089481;28;20688;-60
2023/01/06 09:43:40;;;;;;;5.90;1.30;;;;;;;;;;5091600;28;20052;-60
2023/01/06 09:46:07;;;;;;;6.30;0.80;;;;;;;;;;5092332;28;20423;-60
2023/01/06 09:48:40;;;;;;;7.57;0.93;;;;;;;;;;5092094;28;20052;-60
2023/01/06 09:51:07;;;;;;;3.97;0.65;;;;;;;;;;5091840;28;20044;-60
2023/01/06 09:53:34;;;;;;;6.68;1.02;;;;;;;;;;5080412;28;20590;-60
2023/01/06 09:56:03;;;;;;;5.63;0.88;;;;;;;;;;5089353;28;20051;-60
2023/01/06 09:58:49;;;;;;;4.38;0.52;;;;;;;;;;5091878;28;20048;-60
2023/01/06 10:01:17;;;;;;;4.00;0.73;;;;;;;;;;5091734;28;20149;-60
2023/01/06 10:03:45;;;;;;;3.75;1.02;;;;;;;;;;5091682;28;20044;-60
2023/01/06 10:06:30;;;;;;;7.55;1.10;;;;;;;;;;5091776;28;20052;-60
2023/01/06 10:09:03;;;;;;;5.38;0.60;;;;;;;;;;5091818;28;20047;-60
2023/01/06 10:11:32;;;;;;;6.38;0.90;;;;;;;;;;5091589;28;20040;-60
2023/01/06 10:14:01;;;;;;;3.90;0.80;;;;;;;;;;5091092;28;20483;-60
2023/01/06 10:16:33;;;;;;;5.35;0.70;;;;;;;;;;5091548;28;20040;-60
2023/01/06 10:19:04;;;;;;;6.30;0.85;;;;;;;;;;5091328;28;20044;-60
2023/01/06 10:21:33;;;;;;;7.75;1.05;;;;;;;;;;5091428;28;20055;-60
2023/01/06 10:24:00;;;;;;;6.35;1.08;;;;;;;;;;5081596;28;20059;-60
2023/01/06 10:26:26;;;;;;;7.50;0.90;;;;;;;;;;5083923;28;20123;-60
2023/01/06 10:28:53;;;;;;;6.57;0.98;;;;;;;;;;5091668;28;20056;-60
2023/01/06 10:31:22;;;;;;;2.53;0.80;;;;;;;;;;5091220;28;20044;-60
2023/01/06 10:33:52;;;;;;;5.78;1.10;;;;;;;;;;5090916;28;20305;-60
2023/01/06 10:36:38;;;;;;;3.00;0.60;;;;;;;;;;5091729;28;20051;-60
2023/01/06 10:39:07;;;;;;;5.32;0.98;;;;;;;;;;5091143;28;20040;-61
2023/01/06 10:41:36;;;;;;;4.32;0.93;;;;;;;;;;5091328;28;20123;-60
2023/01/06 10:44:03;;;;;;;4.93;1.08;;;;;;;;;;5091389;28;20044;-60
2023/01/06 10:46:32;;;;;;;7.63;1.00;;;;;;;;;;5091188;28;20044;-60
2023/01/06 10:48:58;;;;;;;9.25;1.00;;;;;;;;;;5079379;28;20588;-59
2023/01/06 10:51:34;;;;;;;5.87;0.93;;;;;;;;;;5086936;28;20093;-61
2023/01/06 10:54:15;;;;;;;5.90;1.05;;;;;;;;;;5090068;28;20071;-61
2023/01/06 10:56:47;;;;;;;6.47;1.38;;;;;;;;;;5089785;28;20123;-60
2023/01/06 10:59:13;;;;;;;2.95;0.70;;;;;;;;;;5089790;28;20040;-61
2023/01/06 11:01:47;;;;;;;4.93;0.88;;;;;;;;;;5089645;28;20048;-60
2023/01/06 11:04:16;;;;;;;5.40;1.20;;;;;;;;;;5089426;28;20056;-61
2023/01/06 11:06:49;;;;;;;5.97;1.30;;;;;;;;;;5093491;28;20040;-60
2023/01/06 11:09:27;;;;;;;8.70;1.27;;;;;;;;;;5083391;28;20114;-60
2023/01/06 11:11:55;;;;;;;6.25;1.00;;;;;;;;;;5094051;28;20043;-60
2023/01/06 11:14:25;;;;;;;4.57;1.13;;;;;;;;;;5092173;28;20047;-61
2023/01/06 11:16:56;;;;;;;4.20;0.77;;;;;;;;;;5094900;28;20048;-61
2023/01/06 11:19:30;;;;;;;5.13;0.93;;;;;;;;;;5094727;28;20046;-60
2023/01/06 11:21:56;;;;;;;5.40;0.90;;;;;;;;;;5094610;28;20052;-61
2023/01/06 11:24:24;;;;;;;5.85;1.35;;;;;;;;;;5094384;28;20052;-61
2023/01/06 11:26:53;;;;;;;5.22;1.33;;;;;;;;;;5093676;28;20127;-61
2023/01/06 11:29:27;;;;;;;5.70;0.93;;;;;;;;;;5094720;28;20052;-61
2023/01/06 11:31:54;;;;;;;4.82;0.90;;;;;;;;;;5094629;28;20135;-61
2023/01/06 11:34:25;;;;;;;5.65;1.00;;;;;;;;;;5110022;28;20136;-61
2023/01/06 11:36:52;;;;;;;6.78;1.30;;;;;;;;;;5094852;28;20044;-62
2023/01/06 11:39:22;;;;;;;8.05;1.00;;;;;;;;;;5094492;28;20048;-62
2023/01/06 11:41:50;;;;;;;4.68;1.05;;;;;;;;;;5094518;28;20046;-62
2023/01/06 11:44:20;;;;;;;6.55;1.10;;;;;;;;;;5094453;28;20503;-62
2023/01/06 11:46:49;;;;;;;3.75;0.90;;;;;;;;;;5094844;28;20048;-62
2023/01/06 11:49:22;;;;;;;5.70;1.15;;;;;;;;;;5084765;28;20048;-62
2023/01/06 11:51:48;;;;;;;3.92;0.70;;;;;;;;;;5094645;28;20124;-61
2023/01/06 11:54:44;;;;;;;5.68;1.00;;;;;;;;;;5094322;28;20143;-62
2023/01/06 11:57:22;;;;;;;8.88;1.20;;;;;;;;;;5079946;28;20041;-61
2023/01/06 12:00:08;;;;;;;4.65;1.08;;;;;;;;;;5093849;28;20414;-62
2023/01/06 12:02:44;;;;;;;7.60;1.35;;;;;;;;;;5092424;28;20052;-66
2023/01/06 12:05:17;;;;;;;6.57;0.93;;;;;;;;;;5094339;28;20121;-62
2023/01/06 12:07:48;;;;;;;9.65;1.23;;;;;;;;;;5094412;28;20048;-62
2023/01/06 12:10:20;;;;;;;5.90;1.10;;;;;;;;;;5094173;28;20055;-62
2023/01/06 12:12:47;;;;;;;7.75;0.90;;;;;;;;;;5094098;28;20506;-62
2023/01/06 12:15:15;;;;;;;2.95;0.95;;;;;;;;;;5093725;28;20048;-62
2023/01/06 12:17:45;;;;;;;4.95;0.60;;;;;;;;;;5093876;28;20048;-62
2023/01/06 12:20:30;;;;;;;3.40;0.65;;;;;;;;;;5094043;28;20044;-62
2023/01/06 12:23:03;;;;;;;5.00;0.73;;;;;;;;;;5093953;28;20044;-62
2023/01/06 12:25:36;;;;;;;6.53;1.10;;;;;;;;;;5090484;28;20460;-63
2023/01/06 12:28:04;;;;;;;6.68;1.27;;;;;;;;;;5093312;28;20048;-62
2023/01/06 12:30:33;;;;;;;4.30;0.85;;;;;;;;;;5093120;28;20123;-62
2023/01/06 12:33:02;;;;;;;3.20;1.02;;;;;;;;;;5093051;28;20059;-63
2023/01/06 12:35:31;;;;;;;5.63;1.00;;;;;;;;;;5093079;28;20052;-66
2023/01/06 12:38:06;;;;;;;4.25;0.90;;;;;;;;;;5093542;28;20050;-62
2023/01/06 12:40:40;;;;;;;3.35;0.60;;;;;;;;;;5093467;28;20395;-62
2023/01/06 12:43:09;;;;;;;7.22;0.90;;;;;;;;;;5092972;28;20513;-62
2023/01/06 12:45:56;;;;;;;4.72;0.70;;;;;;;;;;5093240;28;20040;-61
2023/01/06 12:48:49;;;;;;;7.47;0.95;;;;;;;;;;5092986;28;20101;-62
2023/01/06 12:51:22;;;;;;;4.30;0.73;;;;;;;;;;5090424;28;20054;-62
2023/01/06 12:53:56;;;;;;;6.10;0.85;;;;;;;;;;5084335;28;20053;-62
2023/01/06 12:56:29;;;;;;;6.15;1.35;;;;;;;;;;5088913;28;20048;-62
2023/01/06 12:59:08;;;;;;;5.00;0.60;;;;;;;;;;5093550;28;20056;-62
2023/01/06 13:01:53;;;;;;;3.80;0.80;;;;;;;;;;5092936;28;20523;-62
2023/01/06 13:04:25;;;;;;;5.78;0.57;;;;;;;;;;5092875;28;20056;-63
2023/01/06 13:07:00;;;;;;;3.08;0.60;;;;;;;;;;5092611;28;20059;-62
2023/01/06 13:09:50;;;;;;;5.32;0.82;;;;;;;;;;5081753;28;20412;-63
2023/01/06 13:12:17;;;;;;;6.65;0.98;;;;;;;;;;5059355;28;20127;-63
2023/01/06 13:14:43;;;;;;;5.75;0.98;;;;;;;;;;5089655;28;20381;-63
2023/01/06 13:17:20;;;;;;;4.88;0.85;;;;;;;;;;5092592;28;20400;-63
2023/01/06 13:19:54;;;;;;;7.45;0.85;;;;;;;;;;5092656;28;20052;-62
2023/01/06 13:22:25;;;;;;;5.35;0.98;;;;;;;;;;5092974;28;20341;-61
2023/01/06 13:24:57;;;;;;;10.23;1.23;;;;;;;;;;5093255;28;20123;-64
2023/01/06 13:27:23;;;;;;;5.50;0.80;;;;;;;;;;5088695;28;20051;-63
2023/01/06 13:29:55;;;;;;;5.65;0.70;;;;;;;;;;5092034;28;20131;-63
2023/01/06 13:32:40;;;;;;;5.88;0.70;;;;;;;;;;5091899;28;20518;-63
2023/01/06 13:35:19;;;;;;;3.25;0.65;;;;;;;;;;5092098;28;20040;-63
2023/01/06 13:37:48;;;;;;;2.88;0.50;;;;;;;;;;5091884;28;20044;-65
2023/01/06 13:40:16;;;;;;;2.15;0.43;;;;;;;;;;5092134;28;20115;-65
2023/01/06 13:42:52;;;;;;;2.40;0.43;;;;;;;;;;5092182;28;20434;-65
2023/01/06 13:45:29;;;;;;;3.35;0.40;;;;;;;;;;5091828;28;20047;-66
2023/01/06 13:47:55;;;;;;;;;;;;;;;;;;5092775;28;20088;-66
2023/01/06 13:50:22;;;;;;;3.17;0.65;;;;;;;;;;5092324;28;19920;-70
2023/01/06 13:52:49;;;;;;;2.93;0.43;;;;;;;;;;5092090;28;20138;-68
2023/01/06 13:55:19;;;;;;;3.88;0.47;;;;;;;;;;5092176;28;20044;-67
2023/01/06 13:57:45;;;;;;;4.10;0.80;;;;;;;;;;5092447;28;20176;-69
2023/01/06 14:00:14;;;;;;;4.15;0.80;;;;;;;;;;5092185;28;20127;-70
2023/01/06 14:02:44;;;;;;;2.05;0.50;;;;;;;;;;5092111;28;20146;-70
2023/01/06 14:05:22;;;;;;;4.43;0.70;;;;;;;;;;5091670;28;20514;-68
2023/01/06 14:07:50;;;;;;;4.25;0.65;;;;;;;;;;5092113;28;20150;-62
2023/01/06 14:10:16;;;;;;;;;;;;;;;;;;5088945;28;20146;-61
2023/01/06 14:12:46;;;;;;;5.40;0.80;;;;;;;;;;5091273;28;19920;-62
2023/01/06 14:15:21;;;;;;;3.90;0.60;;;;;;;;;;5091273;28;20044;-62
2023/01/06 14:17:48;;;;;;;2.60;0.50;;;;;;;;;;5091676;28;20051;-61
2023/01/06 14:20:34;;;;;;;4.05;0.50;;;;;;;;;;5091274;28;20047;-61
2023/01/06 14:23:02;;;;;;;3.40;0.80;;;;;;;;;;5090867;28;21508;-62
2023/01/06 14:25:31;;;;;;;5.18;0.85;;;;;;;;;;5095078;28;20052;-62
2023/01/06 14:27:58;;;;;;;7.00;0.75;;;;;;;;;;5089369;28;20514;-62
2023/01/06 14:30:27;;;;;;;4.60;0.73;;;;;;;;;;5091119;28;20383;-62
2023/01/06 14:32:58;;;;;;;7.97;0.75;;;;;;;;;;5091170;28;20131;-62
2023/01/06 14:35:27;;;;;;;3.72;0.63;;;;;;;;;;5091352;28;20037;-62
2023/01/06 14:37:57;;;;;;;3.55;0.55;;;;;;;;;;5091301;28;20040;-62
2023/01/06 14:40:47;;;;;;;4.90;0.70;;;;;;;;;;5094532;28;20514;-62
2023/01/06 14:43:22;;;;;;;3.60;0.60;;;;;;;;;;5086305;28;20089;-62
2023/01/06 14:45:49;;;;;;;4.63;0.55;;;;;;;;;;5095419;28;20127;-62
2023/01/06 14:48:18;;;;;;;3.60;1.17;;;;;;;;;;5095316;28;20052;-62
2023/01/06 14:50:47;;;;;;;6.20;0.90;;;;;;;;;;5095331;28;20583;-62
2023/01/06 14:53:21;;;;;;;3.80;0.77;;;;;;;;;;5095048;28;20040;-61
2023/01/06 14:55:49;;;;;;;3.38;0.73;;;;;;;;;;5093327;28;20522;-62
2023/01/06 14:58:27;;;;;;;3.17;0.75;;;;;;;;;;5095521;28;20123;-62
2023/01/06 15:00:54;;;;;;;3.67;0.80;;;;;;;;;;5094366;28;20131;-62
2023/01/06 15:03:21;;;;;;;3.50;1.08;;;;;;;;;;5095746;28;20048;-62